KDRT/DRT METAR and TAF weather

Enter ICAO airport designator
Station Type Date Time Source
KDRT METAR 2021/07/29 02:53 UTC NOAA

KDRT 290253Z AUTO 10009KT 10SM CLR 33/18 A2997 RMK AO2 LTG DSNT N SLP137 T03330183 53012


Station Type Date Time Source
KDRT Decoded METAR 2021/07/29 02:53 UTC NOAA

DEL RIO INTERNATIONAL AIRPORT, TX, United States (KDRT) 29-22N 100-55W 313M
Jul 28, 2021 - 10:53 PM EDT / 2021.07.29 0253 UTC
Wind: from the E (100 degrees) at 10 MPH (9 KT):0
Visibility: 10 mile(s):0
Sky conditions: clear
Weather: Lightning observed
Temperature: 91.9 F (33.3 C)
Heat index: 94.1 F (34.5 C):1
Dew Point: 64.9 F (18.3 C)
Relative Humidity: 41%
Pressure (altimeter): 29.97 in. Hg (1014 hPa)
Pressure tendency: 0.04 inches (1.2 hPa) higher than three hours ago
ob: KDRT 290253Z AUTO 10009KT 10SM CLR 33/18 A2997 RMK AO2 LTG DSNT N SLP137 T03330183 53012
cycle: 3

Station Type Date Time Source
KDRT TAF 2021/07/28 18:22 UTC NOAA

TAF KDRT 281720Z 2818/2918 14008KT P6SM SCT250
FM282100 13009G19KT P6SM VCSH SCT045 BKN100
FM290300 12008KT P6SM SCT150

Example: see airport list